Time;durP1;ratioP1;P1;durP2;ratioP2;P2;SDS_P1;SDS_P2;PMS_P1;PMS_P2;Temp;Humidity;BMP_temperature;BMP_pressure;BME280_temperature;BME280_humidity;BME280_pressure;Samples;Min_cycle;Max_cycle;Signal;HPM_P1;HPM_P2
2022/03/24 00:02:14;;;;;;;35.10;18.73;;;5.40;99.90;;;;;;5023789;28;20383;-82
2022/03/24 00:04:40;;;;;;;32.45;20.63;;;5.40;99.90;;;;;;5006602;28;20410;-82
2022/03/24 00:07:05;;;;;;;35.08;19.17;;;5.40;99.90;;;;;;5021561;28;20042;-83
2022/03/24 00:09:31;;;;;;;34.13;19.70;;;5.40;99.90;;;;;;4990342;28;20046;-83
2022/03/24 00:11:57;;;;;;;37.97;21.77;;;5.30;99.90;;;;;;5007735;28;20037;-82
2022/03/24 00:14:23;;;;;;;35.78;20.05;;;5.40;99.90;;;;;;5008354;28;20611;-82
2022/03/24 00:16:49;;;;;;;32.83;19.27;;;5.30;99.90;;;;;;5007776;28;20085;-82
2022/03/24 00:19:19;;;;;;;33.45;18.05;;;5.30;99.90;;;;;;5007274;28;20119;-82
2022/03/24 00:21:45;;;;;;;31.95;20.33;;;5.30;99.90;;;;;;5006316;28;20054;-83
2022/03/24 00:24:11;;;;;;;35.28;20.42;;;5.20;99.90;;;;;;5005889;28;20042;-82
2022/03/24 00:26:37;;;;;;;31.90;19.40;;;5.20;99.90;;;;;;5006801;28;20087;-82
2022/03/24 00:29:04;;;;;;;35.13;20.27;;;5.10;99.90;;;;;;4989423;28;20758;-82
2022/03/24 00:31:30;;;;;;;32.00;19.52;;;5.10;99.90;;;;;;5005792;28;20064;-82
2022/03/24 00:33:56;;;;;;;36.17;21.10;;;5.00;99.90;;;;;;5006901;28;20085;-83
2022/03/24 00:36:22;;;;;;;35.53;21.38;;;5.00;99.90;;;;;;5000037;28;20454;-82
2022/03/24 00:38:52;;;;;;;33.60;20.00;;;5.00;99.90;;;;;;5005958;28;20073;-82
2022/03/24 00:41:22;;;;;;;36.35;19.20;;;4.90;99.90;;;;;;5007441;28;20092;-82
2022/03/24 00:43:51;;;;;;;37.47;19.75;;;4.80;99.90;;;;;;5004794;28;20386;-83
2022/03/24 00:46:20;;;;;;;35.72;19.65;;;4.70;99.90;;;;;;5006992;28;20085;-82
2022/03/24 00:48:45;;;;;;;34.78;18.92;;;4.70;99.90;;;;;;5006469;28;20048;-82
2022/03/24 00:51:11;;;;;;;37.20;18.58;;;4.60;99.90;;;;;;5008810;28;20042;-83
2022/03/24 00:53:36;;;;;;;33.90;19.48;;;4.60;99.90;;;;;;5006944;28;20093;-83
2022/03/24 00:56:02;;;;;;;31.90;17.60;;;4.50;99.90;;;;;;5005850;28;20033;-83
2022/03/24 00:58:28;;;;;;;35.22;19.70;;;4.50;99.90;;;;;;5007260;28;20038;-83
2022/03/24 01:00:54;;;;;;;32.25;17.88;;;4.50;99.90;;;;;;5005699;28;20398;-82
2022/03/24 01:03:21;;;;;;;37.65;19.50;;;4.50;99.90;;;;;;5007141;28;20397;-83
2022/03/24 01:05:48;;;;;;;34.28;19.13;;;4.50;99.90;;;;;;5029258;28;20046;-83
2022/03/24 01:08:16;;;;;;;37.13;21.67;;;4.50;99.90;;;;;;4989533;28;20064;-83
2022/03/24 01:10:43;;;;;;;35.88;19.25;;;4.50;99.90;;;;;;5006573;28;20516;-83
2022/03/24 01:13:09;;;;;;;33.75;18.33;;;4.50;99.90;;;;;;5006959;28;20378;-83
2022/03/24 01:15:35;;;;;;;33.80;18.25;;;4.50;99.90;;;;;;5007049;28;20045;-83
2022/03/24 01:18:02;;;;;;;34.50;19.08;;;4.50;99.90;;;;;;5006331;28;20038;-83
2022/03/24 01:20:29;;;;;;;35.80;19.77;;;4.40;99.90;;;;;;5007502;28;20052;-83
2022/03/24 01:22:55;;;;;;;33.40;20.10;;;4.40;99.90;;;;;;4988143;28;20042;-82
2022/03/24 01:25:23;;;;;;;36.63;20.60;;;4.40;99.90;;;;;;5037151;28;20091;-83
2022/03/24 01:27:51;;;;;;;36.03;20.83;;;4.40;99.90;;;;;;5005329;28;20037;-83
2022/03/24 01:30:17;;;;;;;33.83;18.95;;;4.40;99.90;;;;;;5006667;28;20069;-83
2022/03/24 01:32:44;;;;;;;33.42;18.25;;;4.40;99.90;;;;;;5006201;28;20053;-82
2022/03/24 01:35:10;;;;;;;37.35;19.15;;;4.30;99.90;;;;;;5007005;28;20046;-83
2022/03/24 01:37:36;;;;;;;35.53;20.95;;;4.30;99.90;;;;;;5006436;28;20506;-83
2022/03/24 01:40:04;;;;;;;32.55;18.50;;;4.30;99.90;;;;;;5006370;28;20106;-83
2022/03/24 01:42:34;;;;;;;36.95;18.58;;;4.30;99.90;;;;;;4990748;28;20137;-83
2022/03/24 01:45:00;;;;;;;38.45;20.85;;;4.20;99.90;;;;;;5007068;28;20046;-83
2022/03/24 01:47:25;;;;;;;32.33;18.88;;;4.20;99.90;;;;;;5005225;28;20050;-83
2022/03/24 01:49:52;;;;;;;33.08;16.75;;;4.20;99.90;;;;;;5004616;28;20505;-83
2022/03/24 01:52:18;;;;;;;35.75;18.90;;;4.20;99.90;;;;;;5004908;28;20050;-83
2022/03/24 01:54:51;;;;;;;34.55;19.65;;;4.10;99.90;;;;;;5005360;28;20504;-82
2022/03/24 01:57:17;;;;;;;33.95;20.25;;;4.10;99.90;;;;;;5008023;28;20046;-83
2022/03/24 01:59:43;;;;;;;35.65;19.17;;;4.10;99.90;;;;;;5011321;28;20371;-83
2022/03/24 02:02:10;;;;;;;32.95;18.25;;;4.10;99.90;;;;;;5005458;28;20065;-83
2022/03/24 02:04:36;;;;;;;30.52;18.75;;;4.10;99.90;;;;;;5004781;28;20241;-83
2022/03/24 02:07:05;;;;;;;33.88;18.35;;;4.10;99.90;;;;;;5005969;28;20053;-83
2022/03/24 02:09:35;;;;;;;32.80;18.90;;;4.10;99.90;;;;;;5004411;28;20483;-82
2022/03/24 02:12:08;;;;;;;35.42;19.95;;;4.00;99.90;;;;;;5007974;28;20084;-83
2022/03/24 02:14:34;;;;;;;34.75;19.55;;;4.00;99.90;;;;;;5025841;28;20142;-83
2022/03/24 02:17:00;;;;;;;33.95;19.00;;;4.10;99.90;;;;;;5025678;28;20541;-83
2022/03/24 02:19:27;;;;;;;33.50;19.05;;;4.00;99.90;;;;;;5010456;28;20126;-83
2022/03/24 02:21:58;;;;;;;35.22;19.30;;;4.10;99.90;;;;;;5005744;28;20167;-83
2022/03/24 02:24:26;;;;;;;33.88;18.15;;;4.00;99.90;;;;;;5006465;28;20398;-83
2022/03/24 02:26:52;;;;;;;34.65;19.15;;;4.00;99.90;;;;;;4996140;28;20049;-83
2022/03/24 02:29:25;;;;;;;32.70;16.90;;;4.00;99.90;;;;;;5011625;28;20177;-83
2022/03/24 02:31:51;;;;;;;32.78;18.67;;;3.90;99.90;;;;;;5009385;28;20050;-83
2022/03/24 02:34:37;;;;;;;34.50;19.45;;;3.90;99.90;;;;;;5006188;28;20435;-83
2022/03/24 02:37:12;;;;;;;38.20;19.65;;;3.90;99.90;;;;;;5008286;28;20405;-83
2022/03/24 02:39:42;;;;;;;35.45;18.35;;;3.80;99.90;;;;;;5007427;28;20054;-83
2022/03/24 02:42:14;;;;;;;34.80;18.65;;;3.80;99.90;;;;;;5005017;28;20042;-83
2022/03/24 02:44:41;;;;;;;30.45;18.27;;;3.70;99.90;;;;;;5005529;28;20053;-84
2022/03/24 02:47:08;;;;;;;37.55;20.45;;;3.70;99.90;;;;;;5004870;28;20046;-83
2022/03/24 02:49:35;;;;;;;33.92;19.25;;;3.60;99.90;;;;;;5004190;28;20048;-83
2022/03/24 02:52:01;;;;;;;34.60;18.67;;;3.60;99.90;;;;;;5005788;28;20098;-83
2022/03/24 02:54:28;;;;;;;34.70;20.80;;;3.50;99.90;;;;;;5005970;28;20053;-83
2022/03/24 02:56:54;;;;;;;36.72;21.00;;;3.60;99.90;;;;;;5005248;28;20061;-83
2022/03/24 02:59:20;;;;;;;32.80;19.05;;;3.50;99.90;;;;;;5019341;28;20049;-84
2022/03/24 03:02:07;;;;;;;36.10;18.65;;;3.50;99.90;;;;;;5016086;28;20060;-83
2022/03/24 03:04:34;;;;;;;35.28;18.38;;;3.40;99.90;;;;;;5004604;28;20284;-83
2022/03/24 03:07:02;;;;;;;34.83;20.67;;;3.30;99.90;;;;;;5006901;28;20127;-83
2022/03/24 03:09:29;;;;;;;36.15;19.52;;;3.30;99.90;;;;;;5007973;28;20175;-83
2022/03/24 03:11:56;;;;;;;30.73;17.35;;;3.30;99.90;;;;;;5006754;28;20042;-83
2022/03/24 03:14:22;;;;;;;36.55;20.60;;;3.30;99.90;;;;;;5008752;28;20077;-83
2022/03/24 03:16:48;;;;;;;38.13;20.42;;;3.30;99.90;;;;;;5008490;28;20482;-83
2022/03/24 03:19:17;;;;;;;37.30;19.92;;;3.30;99.90;;;;;;5008745;28;20094;-83
2022/03/24 03:21:43;;;;;;;36.55;20.05;;;3.30;99.90;;;;;;5006373;28;20155;-83
2022/03/24 03:24:10;;;;;;;35.05;18.38;;;3.30;99.90;;;;;;5009265;28;20077;-83
2022/03/24 03:26:37;;;;;;;35.40;18.65;;;3.30;99.90;;;;;;5007668;28;20056;-83
2022/03/24 03:29:03;;;;;;;33.55;19.00;;;3.30;99.90;;;;;;5012020;28;20042;-83
2022/03/24 03:31:29;;;;;;;34.97;17.73;;;3.30;99.90;;;;;;5009338;28;20087;-84
2022/03/24 03:33:55;;;;;;;36.05;19.85;;;3.20;99.90;;;;;;5007944;28;20037;-83
2022/03/24 03:36:22;;;;;;;38.42;20.73;;;3.20;99.90;;;;;;5009432;28;20048;-83
2022/03/24 03:38:48;;;;;;;34.83;18.73;;;3.20;99.90;;;;;;5008675;28;20038;-83
2022/03/24 03:41:15;;;;;;;36.58;18.90;;;3.10;99.90;;;;;;5008774;28;20058;-83
2022/03/24 03:43:42;;;;;;;36.53;19.55;;;3.10;99.90;;;;;;5007695;28;20042;-82
2022/03/24 03:46:08;;;;;;;35.05;17.98;;;3.10;99.90;;;;;;5008422;28;20083;-82
2022/03/24 03:48:35;;;;;;;35.25;17.95;;;3.10;99.90;;;;;;5007161;28;20402;-82
2022/03/24 03:51:01;;;;;;;33.58;18.20;;;3.10;99.90;;;;;;5008207;28;20052;-82
2022/03/24 03:53:27;;;;;;;32.50;17.95;;;3.10;99.90;;;;;;5007603;28;20080;-82
2022/03/24 03:55:53;;;;;;;32.47;18.38;;;3.10;99.90;;;;;;5006967;28;20050;-82
2022/03/24 03:58:18;;;;;;;35.60;18.27;;;3.10;99.90;;;;;;5009716;28;20049;-82
2022/03/24 04:00:53;;;;;;;27.60;16.63;;;3.10;99.90;;;;;;5017793;28;20125;-81
2022/03/24 04:03:29;;;;;;;35.42;19.20;;;3.00;99.90;;;;;;5008308;28;20072;-82
2022/03/24 04:06:00;;;;;;;34.60;17.38;;;3.00;99.90;;;;;;5007291;28;20046;-82
2022/03/24 04:08:29;;;;;;;36.60;19.75;;;3.00;99.90;;;;;;5008245;28;20049;-82
2022/03/24 04:10:55;;;;;;;35.70;18.52;;;2.90;99.90;;;;;;5007341;28;20406;-82
2022/03/24 04:13:22;;;;;;;34.20;18.42;;;2.90;99.90;;;;;;5010627;28;20044;-82
2022/03/24 04:15:48;;;;;;;32.38;18.23;;;2.90;99.90;;;;;;5008553;28;20042;-82
2022/03/24 04:18:14;;;;;;;31.75;18.45;;;2.80;99.90;;;;;;5007633;28;20050;-81
2022/03/24 04:20:41;;;;;;;34.05;18.13;;;2.80;99.90;;;;;;5006406;28;20398;-82
2022/03/24 04:23:07;;;;;;;32.65;17.25;;;2.70;99.90;;;;;;5007684;28;20500;-81
2022/03/24 04:25:34;;;;;;;29.98;16.33;;;2.70;99.90;;;;;;5007470;28;20052;-81
2022/03/24 04:28:00;;;;;;;32.40;16.58;;;2.70;99.90;;;;;;5006029;28;20038;-82
2022/03/24 04:30:26;;;;;;;31.90;17.65;;;2.70;99.90;;;;;;5008469;28;20060;-82
2022/03/24 04:32:53;;;;;;;31.75;18.77;;;2.70;99.90;;;;;;5007096;28;20042;-81
2022/03/24 04:35:19;;;;;;;33.05;18.35;;;2.70;99.90;;;;;;5006770;28;20046;-82
2022/03/24 04:37:45;;;;;;;31.30;17.92;;;2.60;99.90;;;;;;5005863;28;20082;-82
2022/03/24 04:40:12;;;;;;;35.65;18.88;;;2.60;99.90;;;;;;5006943;28;20081;-82
2022/03/24 04:42:39;;;;;;;35.42;19.33;;;2.60;99.90;;;;;;5005913;28;20111;-82
2022/03/24 04:45:06;;;;;;;31.13;17.77;;;2.60;99.90;;;;;;5008935;28;20045;-82
2022/03/24 04:47:34;;;;;;;34.47;19.83;;;2.60;99.90;;;;;;5027287;28;20385;-82
2022/03/24 04:50:00;;;;;;;35.83;19.30;;;2.60;99.90;;;;;;5020835;28;20406;-82
2022/03/24 04:52:25;;;;;;;32.65;17.02;;;2.60;99.90;;;;;;5007596;28;20054;-82
2022/03/24 04:54:51;;;;;;;31.35;16.60;;;2.50;99.90;;;;;;5005925;28;20058;-82
2022/03/24 04:57:17;;;;;;;34.33;18.75;;;2.50;99.90;;;;;;5006076;28;20473;-82
2022/03/24 04:59:42;;;;;;;35.15;19.27;;;2.40;99.90;;;;;;5005434;28;20414;-82
2022/03/24 05:02:09;;;;;;;30.33;16.40;;;2.40;99.90;;;;;;5005580;28;20406;-82
2022/03/24 05:04:35;;;;;;;33.03;17.23;;;2.40;99.90;;;;;;5009349;28;20061;-82
2022/03/24 05:07:01;;;;;;;32.63;17.15;;;2.40;99.90;;;;;;5009675;28;20042;-82
2022/03/24 05:09:26;;;;;;;32.05;18.25;;;2.40;99.90;;;;;;5007068;28;20385;-82
2022/03/24 05:11:52;;;;;;;31.85;17.40;;;2.40;99.90;;;;;;5006741;28;20056;-81
2022/03/24 05:14:17;;;;;;;34.63;19.48;;;2.30;99.90;;;;;;5006117;28;20130;-82
2022/03/24 05:16:43;;;;;;;38.80;19.48;;;2.30;99.90;;;;;;5005373;28;20046;-82
2022/03/24 05:19:08;;;;;;;31.10;16.70;;;2.30;99.90;;;;;;4990719;28;20397;-82
2022/03/24 05:21:34;;;;;;;34.35;19.02;;;2.30;99.90;;;;;;5012207;28;20106;-82
2022/03/24 05:24:00;;;;;;;35.75;19.90;;;2.30;99.90;;;;;;5006042;28;20068;-82
2022/03/24 05:26:26;;;;;;;37.50;19.48;;;2.30;99.90;;;;;;5007495;28;20042;-82
2022/03/24 05:28:52;;;;;;;37.33;20.30;;;2.30;99.90;;;;;;5006053;28;20080;-82
2022/03/24 05:31:18;;;;;;;39.30;21.20;;;2.30;99.90;;;;;;5005022;28;20042;-82
2022/03/24 05:33:44;;;;;;;38.90;19.00;;;2.30;99.90;;;;;;5006800;28;20038;-82
2022/03/24 05:36:11;;;;;;;41.97;20.33;;;2.30;99.90;;;;;;5009992;28;20418;-81
2022/03/24 05:38:37;;;;;;;41.63;20.70;;;2.30;99.90;;;;;;4990522;28;20042;-81
2022/03/24 05:41:04;;;;;;;37.35;20.00;;;2.30;99.90;;;;;;5006119;28;20064;-82
2022/03/24 05:43:30;;;;;;;44.03;22.38;;;2.20;99.90;;;;;;5007085;28;20046;-81
2022/03/24 05:45:56;;;;;;;40.55;21.70;;;2.30;99.90;;;;;;5006022;28;20042;-82
2022/03/24 05:48:22;;;;;;;40.97;21.50;;;2.30;99.90;;;;;;5006647;28;20451;-82
2022/03/24 05:50:48;;;;;;;38.58;21.08;;;2.30;99.90;;;;;;5014062;28;20060;-82
2022/03/24 05:53:14;;;;;;;38.33;21.30;;;2.30;99.90;;;;;;5005733;28;20046;-82
2022/03/24 05:55:41;;;;;;;37.28;20.90;;;2.30;99.90;;;;;;5006169;28;20042;-82
2022/03/24 05:58:06;;;;;;;39.60;20.38;;;2.30;99.90;;;;;;5006064;28;20049;-82
2022/03/24 06:00:34;;;;;;;37.65;21.65;;;2.30;99.90;;;;;;5005469;28;20045;-82
2022/03/24 06:03:00;;;;;;;42.67;22.63;;;2.30;99.90;;;;;;5005729;28;20379;-82
2022/03/24 06:05:26;;;;;;;39.05;20.70;;;2.40;99.90;;;;;;5005380;28;20077;-82
2022/03/24 06:07:52;;;;;;;39.33;20.80;;;2.40;99.90;;;;;;5003750;28;20088;-82
2022/03/24 06:10:18;;;;;;;39.95;21.50;;;2.50;99.90;;;;;;5019821;28;20076;-82
2022/03/24 06:12:46;;;;;;;41.17;21.52;;;2.60;99.90;;;;;;4989659;28;20057;-82
2022/03/24 06:15:12;;;;;;;41.38;23.38;;;2.60;99.90;;;;;;5023961;28;20405;-82
2022/03/24 06:17:38;;;;;;;35.92;19.52;;;2.60;99.90;;;;;;5005443;28;20046;-82
2022/03/24 06:20:04;;;;;;;43.03;21.70;;;2.70;99.90;;;;;;5006619;28;20038;-82
2022/03/24 06:22:31;;;;;;;41.17;21.50;;;2.80;99.90;;;;;;5004003;28;20053;-82
2022/03/24 06:24:57;;;;;;;38.03;20.77;;;2.80;99.90;;;;;;5004660;28;20034;-83
2022/03/24 06:27:22;;;;;;;39.97;20.90;;;2.90;99.90;;;;;;5009382;28;20034;-83
2022/03/24 06:29:48;;;;;;;44.25;22.58;;;3.00;99.90;;;;;;5009757;28;20054;-83
2022/03/24 06:32:15;;;;;;;46.97;23.35;;;3.10;99.90;;;;;;5006993;28;20414;-84
2022/03/24 06:34:40;;;;;;;42.22;22.85;;;3.10;99.90;;;;;;5004990;28;20054;-84
2022/03/24 06:37:06;;;;;;;44.17;23.85;;;3.20;99.90;;;;;;5004623;28;20054;-83
2022/03/24 06:39:31;;;;;;;42.60;24.38;;;3.30;99.90;;;;;;5006300;28;20502;-84
2022/03/24 06:41:57;;;;;;;42.63;24.50;;;3.40;99.90;;;;;;5006579;28;20155;-83
2022/03/24 06:44:22;;;;;;;46.13;22.90;;;3.40;99.90;;;;;;5009570;28;20445;-83
2022/03/24 06:46:48;;;;;;;42.20;22.55;;;3.50;99.90;;;;;;5008936;28;20550;-83
2022/03/24 06:49:15;;;;;;;43.30;24.92;;;3.60;99.90;;;;;;5009685;28;20042;-83
2022/03/24 06:51:41;;;;;;;45.10;24.17;;;3.70;99.90;;;;;;5006717;28;20498;-83
2022/03/24 06:54:07;;;;;;;46.13;25.48;;;3.80;99.90;;;;;;5009243;28;20057;-83
2022/03/24 06:56:33;;;;;;;41.40;22.88;;;3.90;99.90;;;;;;5009108;28;20044;-83
2022/03/24 06:58:59;;;;;;;43.25;24.55;;;4.00;99.90;;;;;;5009234;28;20075;-83
2022/03/24 07:01:25;;;;;;;42.00;23.45;;;4.10;99.90;;;;;;5008311;28;20161;-82
2022/03/24 07:03:50;;;;;;;42.88;23.05;;;4.20;99.90;;;;;;5008394;28;20052;-83
2022/03/24 07:06:16;;;;;;;53.25;30.00;;;4.30;99.90;;;;;;5009000;28;20081;-83
2022/03/24 07:08:41;;;;;;;51.92;30.30;;;4.50;99.90;;;;;;5007312;28;20046;-83
2022/03/24 07:11:08;;;;;;;54.95;31.95;;;4.60;99.90;;;;;;5007980;28;20042;-83
2022/03/24 07:13:34;;;;;;;54.55;34.00;;;4.80;99.90;;;;;;5008837;28;20042;-83
2022/03/24 07:15:59;;;;;;;56.72;30.75;;;4.90;99.90;;;;;;5007703;28;20492;-83
2022/03/24 07:18:25;;;;;;;60.22;34.20;;;5.00;99.90;;;;;;5009421;28;20042;-83
2022/03/24 07:20:50;;;;;;;67.20;34.80;;;5.20;99.90;;;;;;5007911;28;20050;-83
2022/03/24 07:23:16;;;;;;;67.85;41.10;;;5.30;99.90;;;;;;5007672;28;20030;-81
2022/03/24 07:25:42;;;;;;;62.10;38.45;;;5.40;99.90;;;;;;5007563;28;20057;-81
2022/03/24 07:28:10;;;;;;;62.20;38.15;;;5.60;99.90;;;;;;5007251;28;20038;-81
2022/03/24 07:30:36;;;;;;;58.53;36.53;;;5.70;99.90;;;;;;5008692;28;20137;-82
2022/03/24 07:33:03;;;;;;;61.28;39.78;;;5.80;99.90;;;;;;5007028;28;20049;-82
2022/03/24 07:35:30;;;;;;;60.28;34.58;;;6.00;99.90;;;;;;5008208;28;20447;-84
2022/03/24 07:37:56;;;;;;;62.10;38.33;;;6.10;99.90;;;;;;5008647;28;20042;-84
2022/03/24 07:40:22;;;;;;;59.22;37.95;;;6.30;99.90;;;;;;5008969;28;20043;-85
2022/03/24 07:42:52;;;;;;;64.35;42.83;;;6.40;99.90;;;;;;5027577;28;20050;-84
2022/03/24 07:45:18;;;;;;;62.65;41.83;;;6.60;99.90;;;;;;5001614;28;20038;-82
2022/03/24 07:48:10;;;;;;;63.45;42.25;;;6.80;99.90;;;;;;5006516;28;20037;-83
2022/03/24 07:50:38;;;;;;;57.88;37.28;;;7.00;99.90;;;;;;5056044;28;20071;-83
2022/03/24 07:53:16;;;;;;;59.40;36.83;;;7.20;99.90;;;;;;4991813;28;20129;-82
2022/03/24 07:55:44;;;;;;;55.83;37.70;;;7.30;99.90;;;;;;5006499;28;20081;-83
2022/03/24 07:58:15;;;;;;;55.13;36.53;;;7.50;99.90;;;;;;5007183;28;20394;-83
2022/03/24 08:00:44;;;;;;;52.40;34.60;;;7.80;99.90;;;;;;5005196;28;20042;-81
2022/03/24 08:03:12;;;;;;;53.65;43.67;;;8.00;99.90;;;;;;5005559;28;20098;-81
2022/03/24 08:05:37;;;;;;;48.80;42.80;;;8.20;99.90;;;;;;5008015;28;20117;-81
2022/03/24 08:08:09;;;;;;;50.65;35.88;;;8.40;99.90;;;;;;5006888;28;20126;-81
2022/03/24 08:10:35;;;;;;;48.90;32.67;;;8.60;99.90;;;;;;5006979;28;20045;-81
2022/03/24 08:13:02;;;;;;;51.78;33.78;;;8.70;99.90;;;;;;5006411;28;20050;-81
2022/03/24 08:15:28;;;;;;;48.25;35.58;;;8.80;99.90;;;;;;5007854;28;20038;-81
2022/03/24 08:17:54;;;;;;;53.10;39.80;;;8.90;99.90;;;;;;4989578;28;20053;-82
2022/03/24 08:20:19;;;;;;;46.45;37.90;;;9.00;99.90;;;;;;5007603;28;20057;-81
2022/03/24 08:22:45;;;;;;;45.80;33.13;;;9.20;99.90;;;;;;5027261;28;20128;-81
2022/03/24 08:25:11;;;;;;;48.00;31.75;;;9.30;99.90;;;;;;5016464;28;20599;-81
2022/03/24 08:27:37;;;;;;;41.72;34.00;;;9.50;99.90;;;;;;5007926;28;20053;-81
2022/03/24 08:30:04;;;;;;;40.58;33.05;;;9.60;99.90;;;;;;5006179;28;20099;-81
2022/03/24 08:32:29;;;;;;;40.60;33.08;;;9.70;99.90;;;;;;5007343;28;20046;-82
2022/03/24 08:34:55;;;;;;;39.45;32.30;;;9.90;99.90;;;;;;5008114;28;20397;-81
2022/03/24 08:37:21;;;;;;;41.08;33.05;;;10.00;99.90;;;;;;5008199;28;20046;-82
2022/03/24 08:39:46;;;;;;;38.40;32.35;;;10.10;99.90;;;;;;5007166;28;20034;-81
2022/03/24 08:42:12;;;;;;;39.30;33.25;;;10.20;99.90;;;;;;5007761;28;20053;-81
2022/03/24 08:44:37;;;;;;;41.13;33.92;;;10.30;99.90;;;;;;5005960;28;20046;-81
2022/03/24 08:47:05;;;;;;;41.20;33.33;;;10.50;99.90;;;;;;5016315;28;20495;-83
2022/03/24 08:49:31;;;;;;;40.15;32.25;;;10.70;99.90;;;;;;5000296;28;20041;-83
2022/03/24 08:51:57;;;;;;;44.05;36.15;;;10.80;99.90;;;;;;5007565;28;20571;-83
2022/03/24 08:54:22;;;;;;;41.63;34.38;;;11.00;99.90;;;;;;5007108;28;20049;-83
2022/03/24 08:56:48;;;;;;;43.75;34.35;;;11.10;99.90;;;;;;5007669;28;20050;-83
2022/03/24 08:59:14;;;;;;;41.78;35.47;;;11.20;99.90;;;;;;5008291;28;20046;-83
2022/03/24 09:01:41;;;;;;;45.22;35.78;;;11.30;99.90;;;;;;5005312;28;20671;-84
2022/03/24 09:04:07;;;;;;;43.47;36.08;;;11.40;99.00;;;;;;5006319;28;20803;-83
2022/03/24 09:06:33;;;;;;;42.92;35.67;;;11.50;98.10;;;;;;5007487;28;20046;-83
2022/03/24 09:08:58;;;;;;;42.08;35.92;;;11.70;97.40;;;;;;5005948;28;20087;-83
2022/03/24 09:11:24;;;;;;;42.88;35.97;;;11.80;96.40;;;;;;5007423;28;20406;-83
2022/03/24 09:13:50;;;;;;;42.92;35.45;;;11.90;96.10;;;;;;5006770;28;20658;-83
2022/03/24 09:16:16;;;;;;;42.60;36.70;;;12.00;94.80;;;;;;5006525;28;20048;-82
2022/03/24 09:18:42;;;;;;;39.80;35.00;;;12.10;93.90;;;;;;5027167;28;20398;-81
2022/03/24 09:21:09;;;;;;;41.25;35.08;;;12.20;92.30;;;;;;5007155;28;20091;-81
2022/03/24 09:23:35;;;;;;;42.25;35.15;;;12.40;91.30;;;;;;5005772;28;20493;-81
2022/03/24 09:26:01;;;;;;;42.00;34.70;;;12.60;88.10;;;;;;5005525;28;20079;-81
2022/03/24 09:28:27;;;;;;;42.75;35.47;;;12.70;88.90;;;;;;5007014;28;20037;-82
2022/03/24 09:30:56;;;;;;;41.25;34.50;;;12.90;86.00;;;;;;5001024;28;20046;-81
2022/03/24 09:33:22;;;;;;;42.38;35.00;;;12.90;86.10;;;;;;5056285;28;20176;-81
2022/03/24 09:35:49;;;;;;;43.58;35.67;;;13.00;86.10;;;;;;5019429;28;20121;-82
2022/03/24 09:38:14;;;;;;;42.10;34.17;;;13.10;86.20;;;;;;5088299;28;21211;-81
2022/03/24 09:40:41;;;;;;;38.17;32.28;;;13.30;81.20;;;;;;5025968;28;20116;-80
2022/03/24 09:43:07;;;;;;;40.53;32.35;;;13.40;77.60;;;;;;5019345;28;20460;-82
2022/03/24 09:45:34;;;;;;;41.83;30.33;;;13.50;78.40;;;;;;5005721;28;20057;-82
2022/03/24 09:48:00;;;;;;;38.13;31.65;;;13.60;76.00;;;;;;5006119;28;20057;-82
2022/03/24 09:50:27;;;;;;;37.80;31.02;;;13.70;76.40;;;;;;5005267;28;20087;-83
2022/03/24 09:52:53;;;;;;;33.47;27.73;;;13.80;74.60;;;;;;4988082;28;20049;-82
2022/03/24 09:55:20;;;;;;;36.70;29.38;;;13.90;71.00;;;;;;5006930;28;20049;-82
2022/03/24 09:57:47;;;;;;;34.95;28.13;;;14.00;69.10;;;;;;5005745;28;20125;-82
2022/03/24 10:00:14;;;;;;;35.42;28.98;;;14.20;67.60;;;;;;5004641;28;20046;-82
2022/03/24 10:02:40;;;;;;;38.30;28.67;;;14.30;66.70;;;;;;5004726;28;20057;-82
2022/03/24 10:05:08;;;;;;;37.88;29.05;;;14.40;66.10;;;;;;5006026;28;20410;-82
2022/03/24 10:07:43;;;;;;;36.53;30.67;;;14.50;65.50;;;;;;5004849;28;20436;-82
2022/03/24 10:10:21;;;;;;;36.33;28.58;;;14.60;64.80;;;;;;5022942;28;20095;-83
2022/03/24 10:12:46;;;;;;;33.47;27.63;;;14.70;64.00;;;;;;5024796;28;20425;-83
2022/03/24 10:15:13;;;;;;;36.80;29.40;;;14.80;64.30;;;;;;5026550;28;20041;-84
2022/03/24 10:17:40;;;;;;;37.25;29.77;;;14.90;63.90;;;;;;5033811;28;20057;-84
2022/03/24 10:20:15;;;;;;;37.17;29.42;;;15.00;64.80;;;;;;5033512;28;20053;-84
2022/03/24 10:22:54;;;;;;;35.75;28.38;;;15.00;65.30;;;;;;5025520;28;20060;-83
2022/03/24 10:25:23;;;;;;;38.22;28.13;;;15.10;65.40;;;;;;5011755;28;20410;-84
2022/03/24 10:28:07;;;;;;;37.08;29.55;;;15.20;63.40;;;;;;5012087;28;20054;-83
2022/03/24 10:30:46;;;;;;;39.05;32.17;;;15.30;62.20;;;;;;5032841;28;20050;-84
2022/03/24 10:33:33;;;;;;;33.83;26.80;;;15.30;60.60;;;;;;5032483;28;20045;-84
2022/03/24 10:36:07;;;;;;;33.38;26.42;;;15.40;57.10;;;;;;5031484;28;20505;-84
2022/03/24 10:38:34;;;;;;;32.40;26.33;;;15.50;59.00;;;;;;5015379;28;20038;-83
2022/03/24 10:41:13;;;;;;;35.00;27.13;;;15.60;58.50;;;;;;5031247;28;20385;-83
2022/03/24 10:43:38;;;;;;;33.90;27.15;;;15.70;58.30;;;;;;5024771;28;20050;-84
2022/03/24 10:46:15;;;;;;;33.80;27.42;;;15.80;57.90;;;;;;5012659;28;20053;-84
2022/03/24 10:48:41;;;;;;;36.58;26.27;;;15.90;58.00;;;;;;5012471;28;20409;-84
2022/03/24 10:51:07;;;;;;;32.95;27.20;;;15.90;57.50;;;;;;5012674;28;20034;-83
2022/03/24 10:53:42;;;;;;;31.25;23.50;;;16.00;58.40;;;;;;5011134;28;20053;-84
2022/03/24 10:56:17;;;;;;;31.63;24.88;;;16.10;54.80;;;;;;5011175;28;20045;-84
2022/03/24 10:58:47;;;;;;;31.27;24.00;;;16.20;54.20;;;;;;5011643;28;20050;-83
2022/03/24 11:01:17;;;;;;;32.15;23.60;;;16.20;53.40;;;;;;5011321;28;20389;-84
2022/03/24 11:03:44;;;;;;;25.13;19.85;;;16.20;53.50;;;;;;5021296;28;20151;-83
2022/03/24 11:06:14;;;;;;;31.33;23.50;;;16.30;51.90;;;;;;5031962;28;20048;-83
2022/03/24 11:08:42;;;;;;;29.40;23.08;;;16.30;51.30;;;;;;5012092;28;20056;-84
2022/03/24 11:11:10;;;;;;;30.45;22.48;;;16.40;51.40;;;;;;5012083;28;20046;-84
2022/03/24 11:13:52;;;;;;;28.17;21.15;;;16.40;51.60;;;;;;5011001;28;20494;-81
2022/03/24 11:16:21;;;;;;;26.50;18.88;;;16.50;51.30;;;;;;5012069;28;20501;-82
2022/03/24 11:18:48;;;;;;;26.38;17.00;;;16.50;51.00;;;;;;5011945;28;20054;-82
2022/03/24 11:21:27;;;;;;;29.20;21.20;;;16.50;51.00;;;;;;5012189;28;20108;-81
2022/03/24 11:23:55;;;;;;;30.00;22.30;;;16.60;49.80;;;;;;5043071;28;20122;-83
2022/03/24 11:26:23;;;;;;;30.17;23.15;;;16.70;50.80;;;;;;5011753;28;20112;-84
2022/03/24 11:28:50;;;;;;;31.50;23.70;;;16.80;50.70;;;;;;5006398;28;20050;-84
2022/03/24 11:31:16;;;;;;;31.02;23.60;;;16.80;51.10;;;;;;5008817;28;20049;-82
2022/03/24 11:33:47;;;;;;;28.35;22.45;;;16.80;50.20;;;;;;5008535;28;20375;-83
2022/03/24 11:36:15;;;;;;;30.95;23.00;;;16.80;51.20;;;;;;5016116;28;20485;-82
2022/03/24 11:38:41;;;;;;;28.42;23.02;;;16.80;51.30;;;;;;5003192;28;20045;-83
2022/03/24 11:41:15;;;;;;;26.73;21.90;;;16.90;50.70;;;;;;5066747;28;20457;-83
2022/03/24 11:43:44;;;;;;;29.20;22.23;;;17.00;51.50;;;;;;4990655;28;20060;-82
2022/03/24 11:46:12;;;;;;;29.63;21.38;;;17.10;50.10;;;;;;4972551;28;20092;-83
2022/03/24 11:48:40;;;;;;;27.73;20.55;;;17.10;50.60;;;;;;4999492;28;20103;-82
2022/03/24 11:51:14;;;;;;;27.92;21.75;;;17.10;50.30;;;;;;5016688;28;20038;-82
2022/03/24 11:53:40;;;;;;;30.15;21.17;;;17.10;49.00;;;;;;5012194;28;20062;-82
2022/03/24 11:56:06;;;;;;;28.05;21.42;;;17.20;50.00;;;;;;5040578;28;20034;-83
2022/03/24 11:58:35;;;;;;;29.50;21.58;;;17.30;49.50;;;;;;4996472;28;20074;-83
2022/03/24 12:01:19;;;;;;;28.38;20.80;;;17.30;49.80;;;;;;5006857;28;20478;-83
2022/03/24 12:04:04;;;;;;;29.35;20.75;;;17.30;48.90;;;;;;5007483;28;20110;-82
2022/03/24 12:09:13;;;;;;;31.10;22.20;;;17.40;48.50;;;;;;5008240;28;20046;-82
2022/03/24 12:11:43;;;;;;;29.30;21.85;;;17.50;50.40;;;;;;5006466;28;20111;-82
2022/03/24 12:14:16;;;;;;;26.35;20.10;;;17.50;49.70;;;;;;5007247;28;20064;-82
2022/03/24 12:16:47;;;;;;;26.17;20.23;;;17.60;49.90;;;;;;5023053;28;20053;-82
2022/03/24 12:19:35;;;;;;;30.52;21.42;;;17.60;49.10;;;;;;5026682;28;20077;-82
2022/03/24 12:22:21;;;;;;;28.73;20.90;;;17.70;49.70;;;;;;5027505;28;20421;-81
2022/03/24 12:24:46;;;;;;;27.17;21.73;;;17.70;49.40;;;;;;5025346;28;20053;-82
2022/03/24 12:27:15;;;;;;;29.50;20.65;;;17.70;49.70;;;;;;5026492;28;20042;-82
2022/03/24 12:29:41;;;;;;;26.20;18.50;;;17.80;49.10;;;;;;5024655;28;20041;-81
2022/03/24 12:32:11;;;;;;;26.88;19.05;;;17.80;48.80;;;;;;5025857;28;20044;-81
2022/03/24 12:34:39;;;;;;;25.58;18.67;;;17.80;48.50;;;;;;5026437;28;20128;-81
2022/03/24 12:37:06;;;;;;;28.77;19.13;;;17.80;48.00;;;;;;5027542;28;20170;-81
2022/03/24 12:39:37;;;;;;;27.83;19.63;;;17.80;48.40;;;;;;5025503;28;20056;-81